Time;durP1;ratioP1;P1;durP2;ratioP2;P2;SDS_P1;SDS_P2;PMS_P1;PMS_P2;Temp;Humidity;BMP_temperature;BMP_pressure;BME280_temperature;BME280_humidity;BME280_pressure;Samples;Min_cycle;Max_cycle;Signal;HPM_P1;HPM_P2
2021/12/20 00:01:04;;;;;;;10.18;3.33;;;7.00;99.90;;;;;;5072690;28;20083;-69
2021/12/20 00:03:29;;;;;;;15.02;3.40;;;7.00;99.90;;;;;;5092253;28;20102;-69
2021/12/20 00:05:55;;;;;;;15.30;3.75;;;7.00;99.90;;;;;;5074882;28;20080;-69
2021/12/20 00:08:21;;;;;;;12.45;2.60;;;7.00;99.90;;;;;;5092390;28;20118;-70
2021/12/20 00:10:46;;;;;;;12.63;3.05;;;7.00;99.90;;;;;;5091734;28;20047;-69
2021/12/20 00:13:12;;;;;;;13.10;2.90;;;7.00;99.90;;;;;;5089871;28;20044;-69
2021/12/20 00:15:38;;;;;;;15.60;3.90;;;8.50;99.90;;;;;;5091332;28;20126;-69
2021/12/20 00:18:03;;;;;;;12.45;3.03;;;7.40;99.90;;;;;;5091014;28;20404;-69
2021/12/20 00:20:29;;;;;;;15.38;3.40;;;6.90;99.90;;;;;;5092095;28;20081;-69
2021/12/20 00:22:55;;;;;;;21.85;4.35;;;6.90;99.90;;;;;;5092015;28;20122;-69
2021/12/20 00:25:20;;;;;;;10.52;3.63;;;6.80;99.90;;;;;;5125490;27;20052;-69
2021/12/20 00:27:46;;;;;;;18.02;3.80;;;7.00;99.90;;;;;;5091988;28;20059;-69
2021/12/20 00:30:12;;;;;;;11.55;3.90;;;8.50;99.90;;;;;;5092296;28;20052;-69
2021/12/20 00:32:38;;;;;;;17.65;3.83;;;6.80;99.90;;;;;;5065159;28;20048;-69
2021/12/20 00:35:06;;;;;;;14.30;3.95;;;6.80;99.90;;;;;;5071885;28;20431;-69
2021/12/20 00:40:21;;;;;;;14.48;3.75;;;6.80;99.90;;;;;;5090335;28;20491;-69
2021/12/20 00:42:58;;;;;;;17.27;3.25;;;6.80;99.90;;;;;;5075156;28;20495;-69
2021/12/20 00:45:32;;;;;;;10.15;3.17;;;6.80;99.90;;;;;;5092000;28;20059;-69
2021/12/20 00:47:58;;;;;;;12.65;3.65;;;6.80;99.90;;;;;;5074162;28;20058;-69
2021/12/20 00:50:25;;;;;;;16.90;3.63;;;6.80;99.90;;;;;;5074529;28;20048;-69
2021/12/20 00:52:53;;;;;;;14.20;3.58;;;6.80;99.90;;;;;;5103506;28;20126;-69
2021/12/20 00:55:20;;;;;;;13.85;3.25;;;6.80;99.90;;;;;;5088517;28;20036;-70
2021/12/20 00:57:47;;;;;;;14.43;3.50;;;6.80;99.90;;;;;;5105347;28;20119;-70
2021/12/20 01:00:16;;;;;;;17.38;3.65;;;6.60;99.90;;;;;;5116525;27;20055;-70
2021/12/20 01:02:42;;;;;;;16.40;4.32;;;;;;;;;;5075363;28;20048;-69
2021/12/20 01:05:08;;;;;;;13.60;3.00;;;6.90;99.90;;;;;;5074301;28;20097;-69
2021/12/20 01:07:34;;;;;;;16.30;3.28;;;6.90;99.90;;;;;;5079513;28;20123;-70
2021/12/20 01:10:04;;;;;;;13.00;3.25;;;;;;;;;;5071007;28;20551;-69
2021/12/20 01:12:36;;;;;;;14.13;3.97;;;6.90;99.90;;;;;;5071331;28;20044;-69
2021/12/20 01:15:03;;;;;;;9.15;2.65;;;7.10;99.90;;;;;;5083799;28;20062;-70
2021/12/20 01:17:30;;;;;;;14.27;3.30;;;7.10;99.90;;;;;;5074358;28;20047;-69
2021/12/20 01:19:55;;;;;;;11.77;2.92;;;9.50;99.90;;;;;;5125125;27;20040;-70
2021/12/20 01:22:21;;;;;;;14.93;2.30;;;6.90;99.90;;;;;;5089579;28;20077;-70
2021/12/20 01:24:47;;;;;;;14.63;2.60;;;7.40;99.90;;;;;;5091221;28;20101;-69
2021/12/20 01:27:13;;;;;;;11.73;2.22;;;;;;;;;;5091197;28;20443;-69
2021/12/20 01:29:38;;;;;;;12.25;2.13;;;6.90;99.90;;;;;;5089205;28;20545;-69
2021/12/20 01:32:04;;;;;;;7.85;2.58;;;6.90;99.90;;;;;;5125428;27;20048;-69
2021/12/20 01:34:30;;;;;;;9.40;2.38;;;6.90;99.90;;;;;;5090821;28;20052;-69
2021/12/20 01:36:56;;;;;;;7.47;2.47;;;8.40;99.90;;;;;;5073508;28;20036;-69
2021/12/20 01:39:23;;;;;;;8.50;2.42;;;6.90;99.90;;;;;;5090858;28;20055;-69
2021/12/20 01:41:52;;;;;;;12.00;2.00;;;6.80;99.90;;;;;;5091583;28;20040;-69
2021/12/20 01:44:18;;;;;;;12.73;2.50;;;;;;;;;;5089372;28;20044;-69
2021/12/20 01:46:44;;;;;;;9.52;2.10;;;7.00;99.90;;;;;;5091343;28;20134;-69
2021/12/20 01:49:13;;;;;;;7.45;1.73;;;6.90;99.90;;;;;;5068444;28;20460;-69
2021/12/20 01:51:49;;;;;;;10.73;2.47;;;7.00;99.90;;;;;;5085185;28;20040;-69
2021/12/20 01:54:15;;;;;;;12.02;2.20;;;7.00;99.90;;;;;;5078219;28;20075;-69
2021/12/20 01:56:43;;;;;;;8.82;2.00;;;8.40;99.90;;;;;;5094854;28;20048;-69
2021/12/20 01:59:10;;;;;;;8.50;1.92;;;7.70;99.90;;;;;;5094565;28;20059;-69
2021/12/20 02:01:37;;;;;;;7.63;2.22;;;7.20;99.90;;;;;;5094808;28;20044;-69
2021/12/20 02:04:07;;;;;;;7.10;1.70;;;6.90;99.90;;;;;;5093976;28;20075;-69
2021/12/20 02:06:38;;;;;;;12.95;2.25;;;6.90;99.90;;;;;;5094686;28;20048;-69
2021/12/20 02:09:09;;;;;;;14.60;2.25;;;7.40;99.90;;;;;;5084940;28;20050;-69
2021/12/20 02:11:37;;;;;;;7.72;1.80;;;8.90;99.90;;;;;;5073913;28;20153;-69
2021/12/20 02:14:04;;;;;;;10.82;2.28;;;6.90;99.90;;;;;;5078330;28;20048;-69
2021/12/20 02:16:30;;;;;;;6.85;1.90;;;;;;;;;;5094153;28;20143;-69
2021/12/20 02:18:56;;;;;;;10.55;2.50;;;6.90;99.90;;;;;;5074630;28;20051;-69
2021/12/20 02:21:22;;;;;;;7.43;1.98;;;;;;;;;;5074111;28;20037;-69
2021/12/20 02:23:48;;;;;;;10.90;2.45;;;6.90;99.90;;;;;;5074707;28;20056;-69
2021/12/20 02:26:18;;;;;;;10.88;2.70;;;6.80;99.90;;;;;;5073453;28;20048;-69
2021/12/20 02:28:46;;;;;;;11.93;2.67;;;6.80;99.90;;;;;;5077811;28;20417;-69
2021/12/20 02:38:58;;;;;;;14.60;3.17;;;6.80;99.90;;;;;;5091804;28;20048;-69
2021/12/20 02:41:31;;;;;;;7.00;1.63;;;9.60;99.90;;;;;;5077360;28;20048;-69
2021/12/20 02:44:05;;;;;;;17.02;2.58;;;6.80;99.90;;;;;;5075479;28;20047;-69
2021/12/20 02:49:07;;;;;;;;;;;6.70;99.90;;;;;;5074348;28;20083;-69
2021/12/20 02:51:33;;;;;;;8.70;2.00;;;6.80;99.90;;;;;;5086208;28;19916;-69
2021/12/20 02:54:01;;;;;;;11.25;2.15;;;6.40;99.90;;;;;;5093037;28;20040;-69
2021/12/20 02:56:26;;;;;;;10.20;2.05;;;6.20;99.90;;;;;;5086430;28;20119;-69
2021/12/20 02:58:52;;;;;;;8.05;1.95;;;7.30;99.90;;;;;;5073419;28;20124;-69
2021/12/20 03:01:19;;;;;;;11.10;2.28;;;;;;;;;;5079520;28;20115;-69
2021/12/20 03:03:46;;;;;;;8.60;1.90;;;7.60;99.90;;;;;;5093277;28;20043;-69
2021/12/20 03:06:14;;;;;;;12.02;1.98;;;6.70;99.90;;;;;;5093906;28;20108;-69
2021/12/20 03:08:44;;;;;;;8.32;2.05;;;6.40;99.90;;;;;;5075622;28;20052;-69
2021/12/20 03:11:10;;;;;;;9.10;1.90;;;6.60;99.90;;;;;;5076624;28;20415;-69
2021/12/20 03:13:36;;;;;;;12.85;2.42;;;;;;;;;;5092629;28;20044;-69
2021/12/20 03:16:02;;;;;;;10.52;2.00;;;6.60;99.90;;;;;;5076462;28;20121;-70
2021/12/20 03:18:28;;;;;;;12.07;1.90;;;6.70;99.90;;;;;;5125771;27;20066;-69
2021/12/20 03:20:54;;;;;;;7.85;1.50;;;6.40;99.90;;;;;;5092654;28;20140;-69
2021/12/20 03:23:20;;;;;;;6.93;1.65;;;7.30;99.90;;;;;;5076780;28;20050;-69
2021/12/20 03:25:46;;;;;;;9.48;3.17;;;6.50;99.90;;;;;;5089821;28;20075;-69
2021/12/20 03:28:12;;;;;;;6.88;1.63;;;;;;;;;;5117529;27;20087;-69
2021/12/20 03:30:38;;;;;;;7.60;2.03;;;6.50;99.90;;;;;;5076742;28;20130;-69
2021/12/20 03:33:04;;;;;;;11.63;2.13;;;6.50;99.90;;;;;;5076551;28;20554;-69
2021/12/20 03:35:29;;;;;;;6.22;2.13;;;6.50;99.90;;;;;;5092872;28;20452;-69
2021/12/20 03:37:56;;;;;;;12.05;1.90;;;6.40;99.90;;;;;;5092341;28;20040;-69
2021/12/20 03:40:21;;;;;;;7.85;1.63;;;6.40;99.90;;;;;;5092987;28;20044;-69
2021/12/20 03:42:47;;;;;;;5.93;1.52;;;6.40;99.90;;;;;;5092451;28;20044;-69
2021/12/20 03:45:14;;;;;;;11.60;2.53;;;6.40;99.90;;;;;;5092718;28;20043;-69
2021/12/20 03:47:41;;;;;;;6.88;1.80;;;6.40;99.90;;;;;;5092808;28;20038;-69
2021/12/20 03:50:08;;;;;;;9.30;1.92;;;8.00;99.90;;;;;;5092242;28;20040;-69
2021/12/20 03:52:38;;;;;;;10.30;1.98;;;;;;;;;;5083575;28;20086;-69
2021/12/20 03:55:05;;;;;;;8.48;1.85;;;6.30;99.90;;;;;;5072946;28;20393;-69
2021/12/20 03:57:31;;;;;;;5.00;1.50;;;6.30;99.90;;;;;;5071698;28;20036;-69
2021/12/20 03:59:57;;;;;;;9.73;1.83;;;;;;;;;;5079019;28;20040;-69
2021/12/20 04:02:24;;;;;;;11.75;1.50;;;6.20;99.90;;;;;;5092555;28;20054;-69
2021/12/20 04:04:50;;;;;;;4.60;1.40;;;;;;;;;;5092082;28;20048;-69
2021/12/20 04:07:16;;;;;;;8.63;1.88;;;6.20;99.90;;;;;;5075693;28;20047;-69
2021/12/20 04:09:42;;;;;;;8.80;1.88;;;7.50;99.90;;;;;;5092822;28;20044;-69
2021/12/20 04:12:08;;;;;;;11.38;1.90;;;8.40;99.90;;;;;;5091846;28;20373;-69
2021/12/20 04:14:34;;;;;;;8.23;1.88;;;;;;;;;;5091276;28;20500;-69
2021/12/20 04:17:00;;;;;;;7.43;1.52;;;;;;;;;;5091176;28;20159;-69
2021/12/20 04:19:26;;;;;;;6.10;1.70;;;5.90;99.90;;;;;;5075485;28;20183;-69
2021/12/20 04:21:51;;;;;;;5.93;1.70;;;5.90;99.90;;;;;;5075257;28;20159;-69
2021/12/20 04:24:17;;;;;;;13.60;2.65;;;8.00;99.90;;;;;;5074705;28;20510;-69
2021/12/20 04:26:43;;;;;;;8.52;2.03;;;5.80;99.90;;;;;;5092405;28;20044;-69
2021/12/20 04:29:09;;;;;;;9.88;1.88;;;5.80;99.90;;;;;;5091118;28;20047;-69
2021/12/20 04:31:35;;;;;;;6.72;1.98;;;5.80;99.90;;;;;;5125057;27;20114;-69
2021/12/20 04:34:01;;;;;;;10.80;1.67;;;5.90;99.90;;;;;;5091890;28;20049;-69
2021/12/20 04:36:29;;;;;;;13.93;2.05;;;;;;;;;;5092240;28;20055;-69
2021/12/20 04:38:55;;;;;;;10.48;1.70;;;;;;;;;;5091205;28;20496;-69
2021/12/20 04:41:21;;;;;;;6.55;1.65;;;5.90;99.90;;;;;;5091731;28;20040;-69
2021/12/20 04:43:47;;;;;;;6.78;1.30;;;5.90;99.90;;;;;;5091381;28;20047;-69
2021/12/20 04:46:12;;;;;;;12.15;2.15;;;5.80;99.90;;;;;;5072122;28;20059;-69
2021/12/20 04:48:38;;;;;;;5.72;1.80;;;5.80;99.90;;;;;;5105994;27;20048;-69
2021/12/20 04:51:04;;;;;;;12.02;2.30;;;5.80;99.90;;;;;;5071388;28;20040;-68
2021/12/20 04:53:29;;;;;;;6.60;1.45;;;5.80;99.90;;;;;;5071090;28;20040;-69
2021/12/20 04:55:55;;;;;;;10.10;2.05;;;5.80;99.90;;;;;;5088135;28;20075;-69
2021/12/20 04:58:21;;;;;;;10.02;1.80;;;5.80;99.90;;;;;;5071184;28;20508;-69
2021/12/20 05:00:46;;;;;;;9.20;1.98;;;5.80;99.90;;;;;;5070488;28;20044;-69
2021/12/20 05:03:12;;;;;;;5.65;1.88;;;5.80;99.90;;;;;;5087758;28;20131;-69
2021/12/20 05:05:38;;;;;;;8.82;2.13;;;5.80;99.90;;;;;;5075102;28;20400;-69
2021/12/20 05:08:04;;;;;;;14.60;2.40;;;7.00;99.90;;;;;;5076781;28;20398;-69
2021/12/20 05:10:34;;;;;;;6.57;2.65;;;5.90;99.90;;;;;;5071449;28;20076;-70
2021/12/20 05:13:10;;;;;;;8.20;2.08;;;6.20;99.90;;;;;;5071067;28;20037;-69
2021/12/20 05:15:37;;;;;;;10.68;2.30;;;5.90;99.90;;;;;;5088041;28;20070;-69
2021/12/20 05:18:05;;;;;;;10.10;2.40;;;6.30;99.90;;;;;;5088096;28;20051;-69
2021/12/20 05:20:31;;;;;;;6.68;1.60;;;6.00;99.90;;;;;;5090777;28;20072;-69
2021/12/20 05:22:57;;;;;;;9.10;1.83;;;;;;;;;;5061158;28;20052;-69
2021/12/20 05:25:23;;;;;;;7.43;1.95;;;6.00;99.90;;;;;;5070350;28;20051;-69
2021/12/20 05:27:49;;;;;;;7.40;2.13;;;6.00;99.90;;;;;;5085622;28;20559;-69
2021/12/20 05:30:16;;;;;;;6.82;1.63;;;6.00;99.90;;;;;;5091161;28;20155;-69
2021/12/20 05:32:43;;;;;;;8.85;1.90;;;6.00;99.90;;;;;;5091150;28;20054;-68
2021/12/20 05:35:10;;;;;;;6.05;1.40;;;6.00;99.90;;;;;;5089660;28;20024;-68
2021/12/20 05:37:36;;;;;;;10.82;2.00;;;5.90;99.90;;;;;;5091449;28;20040;-69
2021/12/20 05:40:02;;;;;;;9.43;1.90;;;6.00;99.90;;;;;;5074489;28;20448;-69
2021/12/20 05:42:28;;;;;;;15.88;2.58;;;6.00;99.90;;;;;;5089928;28;20040;-69
2021/12/20 05:44:55;;;;;;;7.57;2.00;;;6.10;99.90;;;;;;5090360;28;20043;-69
2021/12/20 05:47:22;;;;;;;8.20;1.83;;;;;;;;;;5090619;28;20032;-69
2021/12/20 05:49:49;;;;;;;10.85;2.40;;;6.00;99.90;;;;;;5090352;28;20044;-69
2021/12/20 05:52:14;;;;;;;6.88;1.83;;;6.00;99.90;;;;;;5080279;28;20044;-69
2021/12/20 05:54:40;;;;;;;12.00;2.47;;;6.00;99.90;;;;;;5104876;28;20040;-69
2021/12/20 05:57:06;;;;;;;12.52;2.47;;;6.00;99.90;;;;;;5103515;28;20076;-69
2021/12/20 05:59:32;;;;;;;6.65;1.85;;;6.10;99.90;;;;;;5104359;28;20059;-69
2021/12/20 06:01:58;;;;;;;7.75;1.55;;;;;;;;;;5104371;28;20090;-68
2021/12/20 06:04:24;;;;;;;10.43;2.80;;;;;;;;;;5069968;28;20135;-69
2021/12/20 06:06:50;;;;;;;16.20;2.50;;;6.00;99.90;;;;;;5070669;28;20043;-69
2021/12/20 06:09:16;;;;;;;8.88;2.20;;;6.00;99.90;;;;;;5086568;28;20040;-69
2021/12/20 06:11:41;;;;;;;9.13;2.30;;;6.70;99.90;;;;;;5086854;28;20373;-70
2021/12/20 06:14:07;;;;;;;8.63;2.40;;;6.00;99.90;;;;;;5103157;28;20405;-70
2021/12/20 06:16:33;;;;;;;8.38;1.50;;;6.00;99.90;;;;;;5086509;28;20032;-70
2021/12/20 06:18:58;;;;;;;8.80;2.08;;;6.00;99.90;;;;;;5104279;28;20123;-69
2021/12/20 06:21:24;;;;;;;6.93;1.77;;;7.60;99.90;;;;;;5087249;28;20055;-69
2021/12/20 06:23:50;;;;;;;6.72;1.70;;;6.00;99.90;;;;;;5103315;28;20047;-69
2021/12/20 06:26:15;;;;;;;6.88;2.15;;;6.00;99.90;;;;;;5091850;28;20044;-69
2021/12/20 06:28:41;;;;;;;8.75;1.98;;;5.90;99.90;;;;;;5090063;28;20056;-69
2021/12/20 06:31:08;;;;;;;9.27;2.08;;;;;;;;;;5089781;28;20040;-69
2021/12/20 06:33:34;;;;;;;8.57;2.63;;;;;;;;;;5090511;28;20072;-69
2021/12/20 06:35:59;;;;;;;10.93;2.28;;;5.90;99.90;;;;;;5090674;28;20431;-69
2021/12/20 06:38:26;;;;;;;14.15;2.80;;;;;;;;;;5088632;28;20051;-69
2021/12/20 06:40:53;;;;;;;9.50;2.88;;;5.80;99.90;;;;;;5074125;28;20123;-69
2021/12/20 06:43:19;;;;;;;10.32;2.35;;;5.70;99.90;;;;;;5111860;27;20035;-69
2021/12/20 06:45:46;;;;;;;6.40;2.08;;;5.80;99.90;;;;;;5093685;28;20040;-69
2021/12/20 06:48:12;;;;;;;8.45;1.90;;;5.80;99.90;;;;;;5128237;27;20087;-69
2021/12/20 06:50:38;;;;;;;6.25;2.17;;;5.70;99.90;;;;;;5094309;28;20080;-69
2021/12/20 06:53:05;;;;;;;9.55;2.60;;;5.60;99.90;;;;;;5073480;28;20044;-69
2021/12/20 06:55:32;;;;;;;9.75;2.72;;;5.60;99.90;;;;;;5090328;28;20037;-69
2021/12/20 06:57:58;;;;;;;13.25;3.17;;;5.50;99.90;;;;;;5111013;27;20039;-69
2021/12/20 07:00:24;;;;;;;7.82;2.47;;;;;;;;;;5092443;28;20628;-69
2021/12/20 07:02:50;;;;;;;12.10;3.72;;;5.50;99.90;;;;;;5092352;28;20051;-69
2021/12/20 07:05:16;;;;;;;7.75;3.80;;;5.40;99.90;;;;;;5073495;28;20037;-69
2021/12/20 07:07:41;;;;;;;10.93;3.78;;;5.30;99.90;;;;;;5072817;28;20044;-69
2021/12/20 07:10:08;;;;;;;13.00;3.38;;;5.30;99.90;;;;;;5086500;28;20045;-69
2021/12/20 07:12:36;;;;;;;10.55;3.80;;;;;;;;;;5107490;28;20511;-69
2021/12/20 07:15:03;;;;;;;13.73;3.90;;;5.30;99.90;;;;;;5093241;28;20123;-69
2021/12/20 07:17:30;;;;;;;7.85;3.28;;;5.20;99.90;;;;;;5094051;28;20048;-69
2021/12/20 07:19:58;;;;;;;10.98;3.08;;;5.10;99.90;;;;;;5092704;28;20044;-69
2021/12/20 07:22:24;;;;;;;9.70;3.38;;;5.10;99.90;;;;;;5093242;28;20047;-69
2021/12/20 07:24:50;;;;;;;12.93;3.58;;;5.00;99.90;;;;;;5078278;28;20055;-69
2021/12/20 07:27:18;;;;;;;8.23;3.30;;;4.90;99.90;;;;;;5089471;28;20040;-69
2021/12/20 07:29:44;;;;;;;11.85;4.63;;;4.80;99.90;;;;;;5107173;27;20059;-69
2021/12/20 07:32:11;;;;;;;11.18;3.63;;;4.70;99.90;;;;;;5072798;28;20090;-70
2021/12/20 07:34:38;;;;;;;9.18;3.03;;;4.60;99.90;;;;;;5062121;28;20037;-70
2021/12/20 07:37:07;;;;;;;9.38;3.47;;;4.40;99.90;;;;;;5074613;28;20043;-70
2021/12/20 07:39:33;;;;;;;13.35;3.78;;;4.60;99.90;;;;;;5075976;28;20028;-69
2021/12/20 07:42:00;;;;;;;10.05;3.67;;;4.70;99.90;;;;;;5092478;28;20048;-69
2021/12/20 07:44:26;;;;;;;9.75;2.83;;;4.40;99.90;;;;;;5121458;27;20392;-69
2021/12/20 07:46:52;;;;;;;7.80;3.05;;;4.30;99.90;;;;;;5089831;28;20040;-69
2021/12/20 07:49:17;;;;;;;8.80;2.67;;;3.90;99.90;;;;;;5074272;28;21300;-73
2021/12/20 07:51:44;;;;;;;9.52;2.50;;;4.00;99.90;;;;;;5070281;28;20450;-72
2021/12/20 07:54:10;;;;;;;8.55;2.70;;;;;;;;;;5075628;28;20033;-72
2021/12/20 07:56:36;;;;;;;8.68;2.63;;;4.10;99.90;;;;;;5091884;28;20169;-70
2021/12/20 07:59:02;;;;;;;8.48;4.25;;;4.20;99.90;;;;;;5089068;28;20092;-69
2021/12/20 08:01:28;;;;;;;11.23;3.28;;;4.30;99.90;;;;;;5090196;28;20051;-73
2021/12/20 08:03:53;;;;;;;9.60;3.08;;;3.80;99.90;;;;;;5089223;28;20044;-71
2021/12/20 08:06:20;;;;;;;11.25;3.28;;;3.90;99.90;;;;;;5090321;28;20039;-69
2021/12/20 08:08:46;;;;;;;6.95;2.50;;;4.00;99.90;;;;;;5090661;28;20400;-71
2021/12/20 08:11:12;;;;;;;7.95;2.47;;;3.90;99.90;;;;;;5089091;28;20044;-71
2021/12/20 08:13:44;;;;;;;9.00;2.70;;;3.70;99.90;;;;;;5073623;28;20538;-70
2021/12/20 08:16:16;;;;;;;11.10;3.58;;;3.70;99.90;;;;;;5088838;28;20040;-70
2021/12/20 08:18:44;;;;;;;8.95;3.78;;;4.00;99.90;;;;;;5089863;28;20101;-69
2021/12/20 08:21:10;;;;;;;10.05;4.35;;;4.00;99.90;;;;;;5089676;28;20047;-70
2021/12/20 08:23:36;;;;;;;10.20;3.40;;;;;;;;;;5088440;28;20040;-69
2021/12/20 08:26:02;;;;;;;15.65;3.92;;;4.00;99.90;;;;;;5087448;28;20135;-69
2021/12/20 08:28:28;;;;;;;9.23;4.43;;;3.80;99.90;;;;;;5088836;28;20060;-70
2021/12/20 08:30:54;;;;;;;11.05;4.10;;;3.70;99.90;;;;;;5088881;28;20060;-69
2021/12/20 08:33:20;;;;;;;12.60;4.65;;;4.10;99.90;;;;;;5072432;28;20047;-69
2021/12/20 08:35:49;;;;;;;14.70;4.70;;;4.10;99.90;;;;;;5089161;28;20044;-72
2021/12/20 08:38:19;;;;;;;10.23;3.65;;;3.80;99.90;;;;;;5072243;28;20249;-72
2021/12/20 08:40:46;;;;;;;11.10;4.28;;;4.50;99.90;;;;;;5089616;28;20039;-69
2021/12/20 08:43:12;;;;;;;12.50;3.97;;;;;;;;;;5085776;28;20071;-69
2021/12/20 08:45:37;;;;;;;11.70;5.15;;;4.40;99.90;;;;;;5076065;28;20101;-70
2021/12/20 08:48:03;;;;;;;12.57;5.18;;;4.50;99.90;;;;;;5051957;28;20127;-70
2021/12/20 08:50:30;;;;;;;11.05;5.40;;;;;;;;;;5087279;28;20044;-69
2021/12/20 08:52:56;;;;;;;11.80;5.45;;;;;;;;;;5071455;28;20439;-69
2021/12/20 08:55:23;;;;;;;10.13;5.10;;;4.50;99.90;;;;;;5071848;28;20071;-69
2021/12/20 08:57:50;;;;;;;14.57;5.10;;;4.20;99.90;;;;;;5071775;28;20511;-69
2021/12/20 09:00:23;;;;;;;14.50;5.55;;;4.40;99.90;;;;;;5087265;28;20405;-71
2021/12/20 09:02:49;;;;;;;10.75;4.43;;;4.40;99.90;;;;;;5071555;28;20051;-71
2021/12/20 09:05:16;;;;;;;11.40;3.83;;;4.30;99.90;;;;;;5087986;28;20184;-71
2021/12/20 09:07:42;;;;;;;12.35;4.40;;;4.20;99.90;;;;;;5089058;28;20550;-70
2021/12/20 09:10:10;;;;;;;12.63;4.03;;;4.60;99.90;;;;;;5088288;28;20161;-70
2021/12/20 09:12:36;;;;;;;13.68;4.78;;;4.30;99.90;;;;;;5071250;28;20047;-70
2021/12/20 09:15:03;;;;;;;8.77;3.83;;;4.10;99.90;;;;;;5071175;28;20044;-69
2021/12/20 09:17:28;;;;;;;15.55;5.60;;;4.30;99.90;;;;;;5088126;28;20073;-69
2021/12/20 09:19:54;;;;;;;14.20;5.60;;;4.50;99.90;;;;;;5070734;28;20055;-69
2021/12/20 09:22:26;;;;;;;12.88;4.50;;;4.40;99.90;;;;;;5088275;28;20537;-70
2021/12/20 09:24:51;;;;;;;13.43;4.40;;;4.60;99.90;;;;;;5086048;28;20093;-70
2021/12/20 09:27:17;;;;;;;8.77;3.80;;;4.20;99.90;;;;;;5087913;28;20060;-70
2021/12/20 09:29:43;;;;;;;11.60;4.75;;;;;;;;;;5089019;28;20064;-71
2021/12/20 09:32:09;;;;;;;10.43;4.53;;;4.70;99.90;;;;;;5078901;28;20046;-72
2021/12/20 09:34:35;;;;;;;14.13;5.13;;;;;;;;;;5065847;28;20074;-73
2021/12/20 09:37:04;;;;;;;9.65;4.43;;;4.40;99.90;;;;;;5067954;28;20040;-71
2021/12/20 09:39:32;;;;;;;16.92;5.93;;;4.40;99.90;;;;;;5079820;28;20067;-70
2021/12/20 09:42:00;;;;;;;14.13;6.82;;;4.40;99.90;;;;;;5076158;28;20040;-70
2021/12/20 09:44:27;;;;;;;13.10;6.15;;;4.40;99.90;;;;;;5059776;28;20044;-70
2021/12/20 09:46:58;;;;;;;23.73;13.75;;;4.50;99.90;;;;;;5062322;28;20044;-70
2021/12/20 09:49:25;;;;;;;25.20;16.33;;;4.60;99.90;;;;;;5067439;28;20045;-70
2021/12/20 09:51:50;;;;;;;17.65;7.28;;;4.60;99.90;;;;;;5066803;28;20127;-71
2021/12/20 09:54:16;;;;;;;18.90;6.13;;;4.70;99.90;;;;;;5067825;28;20442;-70
2021/12/20 09:56:43;;;;;;;12.60;5.70;;;5.00;99.90;;;;;;5067291;28;20048;-70
2021/12/20 09:59:16;;;;;;;13.98;4.35;;;4.80;99.90;;;;;;5050415;28;20052;-70
2021/12/20 10:01:44;;;;;;;17.05;4.80;;;5.10;99.90;;;;;;5067894;28;20040;-70
2021/12/20 10:04:10;;;;;;;18.25;4.85;;;5.00;99.90;;;;;;5067985;28;20048;-69
2021/12/20 10:06:36;;;;;;;15.02;5.13;;;5.30;99.90;;;;;;5068053;28;20040;-70
2021/12/20 10:09:11;;;;;;;22.13;5.38;;;5.30;99.90;;;;;;5065708;28;21265;-71
2021/12/20 10:11:38;;;;;;;16.13;3.97;;;5.40;99.90;;;;;;5048849;28;20106;-66
2021/12/20 10:14:16;;;;;;;14.43;4.18;;;5.50;99.90;;;;;;5035357;28;20052;-68
2021/12/20 10:16:44;;;;;;;17.10;4.13;;;6.90;99.90;;;;;;5046408;28;20120;-68
2021/12/20 10:19:49;;;;;;;16.13;4.22;;;5.60;99.90;;;;;;5075595;28;20371;-67
2021/12/20 10:22:22;;;;;;;16.88;4.70;;;5.70;99.90;;;;;;4991194;28;20108;-68
2021/12/20 10:24:47;;;;;;;14.25;4.38;;;5.70;99.90;;;;;;5008846;28;20042;-67
2021/12/20 10:27:34;;;;;;;30.17;11.95;;;6.10;99.90;;;;;;5021309;28;20049;-73
2021/12/20 10:30:19;;;;;;;83.95;31.10;;;5.20;99.90;;;;;;5040195;28;20397;-73
2021/12/20 10:32:45;;;;;;;33.53;12.70;;;6.00;99.90;;;;;;5056313;28;20549;-72
2021/12/20 10:35:30;;;;;;;33.70;11.93;;;8.50;99.90;;;;;;5057934;28;20106;-71
2021/12/20 10:38:18;;;;;;;27.35;9.48;;;6.20;99.90;;;;;;5072936;28;20051;-72
2021/12/20 10:41:00;;;;;;;21.55;5.05;;;6.30;99.90;;;;;;5074291;28;20056;-72
2021/12/20 10:43:29;;;;;;;15.65;3.95;;;6.30;99.90;;;;;;5073781;28;20043;-72
2021/12/20 10:45:56;;;;;;;15.10;5.50;;;6.00;99.90;;;;;;5056050;28;20051;-72
2021/12/20 10:48:29;;;;;;;11.80;5.45;;;6.20;99.90;;;;;;5073537;28;20098;-72
2021/12/20 10:50:55;;;;;;;21.55;5.28;;;6.30;99.90;;;;;;5073178;28;20401;-72
2021/12/20 10:53:25;;;;;;;32.97;6.50;;;7.60;99.90;;;;;;5057122;28;20040;-72
2021/12/20 10:56:03;;;;;;;13.25;4.15;;;6.40;99.90;;;;;;5073571;28;20037;-72
2021/12/20 10:58:33;;;;;;;13.52;3.67;;;6.40;99.90;;;;;;5072779;28;20040;-72
2021/12/20 11:04:00;;;;;;;16.65;4.85;;;6.50;99.90;;;;;;5073397;28;20052;-72
2021/12/20 11:06:41;;;;;;;15.07;4.60;;;6.50;99.90;;;;;;5072987;28;20044;-72
2021/12/20 11:09:14;;;;;;;22.65;5.63;;;6.50;99.90;;;;;;5057074;28;20400;-72
2021/12/20 11:11:44;;;;;;;20.08;4.15;;;6.50;99.90;;;;;;5073529;28;20044;-72
2021/12/20 11:14:11;;;;;;;14.07;3.78;;;6.50;99.90;;;;;;5072674;28;20044;-72
2021/12/20 11:16:45;;;;;;;20.35;6.03;;;7.20;99.90;;;;;;5056589;28;20044;-72
2021/12/20 11:19:17;;;;;;;19.73;3.73;;;6.60;99.90;;;;;;5072891;28;20057;-72
2021/12/20 11:21:58;;;;;;;14.20;3.97;;;6.80;99.90;;;;;;5073208;28;20286;-72
2021/12/20 11:24:35;;;;;;;22.10;5.20;;;6.60;99.90;;;;;;5072329;28;20048;-72
2021/12/20 11:27:03;;;;;;;13.82;4.43;;;6.60;99.90;;;;;;5072345;28;20041;-72
2021/12/20 11:29:30;;;;;;;27.42;6.53;;;6.60;99.90;;;;;;5073709;28;20135;-72
2021/12/20 11:31:56;;;;;;;21.40;4.50;;;6.80;99.90;;;;;;5076349;28;20479;-72
2021/12/20 11:34:23;;;;;;;15.43;4.30;;;8.20;99.90;;;;;;5092291;28;20455;-72
2021/12/20 11:36:50;;;;;;;27.98;10.85;;;6.80;99.90;;;;;;5093258;28;20408;-72
2021/12/20 11:39:16;;;;;;;21.05;5.15;;;6.90;99.90;;;;;;5093269;28;20043;-72
2021/12/20 11:41:43;;;;;;;17.70;5.28;;;7.70;99.90;;;;;;5092525;28;20083;-72
2021/12/20 11:44:16;;;;;;;20.50;6.05;;;6.90;99.90;;;;;;5093151;28;20067;-72
2021/12/20 11:47:00;;;;;;;14.73;5.85;;;6.80;99.90;;;;;;5093285;28;20402;-72
2021/12/20 11:49:26;;;;;;;16.05;4.93;;;6.80;99.90;;;;;;5092824;28;20036;-72
2021/12/20 11:52:03;;;;;;;21.48;4.97;;;6.60;99.90;;;;;;5092841;28;20040;-72
2021/12/20 11:54:39;;;;;;;16.85;4.88;;;6.90;99.90;;;;;;5075305;28;20040;-72
2021/12/20 11:57:06;;;;;;;13.05;3.85;;;6.90;99.90;;;;;;5092652;28;21366;-72
2021/12/20 11:59:52;;;;;;;19.02;3.80;;;6.80;99.90;;;;;;5092708;28;20443;-72
2021/12/20 12:02:19;;;;;;;;;;;7.00;99.90;;;;;;5092374;28;20043;-72
2021/12/20 12:05:07;;;;;;;19.77;5.45;;;7.00;99.90;;;;;;5092793;28;20002;-72
2021/12/20 12:07:35;;;;;;;11.65;4.55;;;7.00;99.90;;;;;;5092529;28;20075;-72
2021/12/20 12:10:17;;;;;;;15.48;4.45;;;7.10;99.90;;;;;;5074797;28;20089;-72
2021/12/20 12:12:46;;;;;;;11.98;3.28;;;7.10;99.90;;;;;;5092801;28;20048;-72
2021/12/20 12:15:32;;;;;;;16.08;4.07;;;7.10;99.90;;;;;;5091426;28;20119;-72
2021/12/20 12:17:58;;;;;;;13.50;3.83;;;6.90;99.90;;;;;;5092080;28;20043;-72
2021/12/20 12:20:39;;;;;;;19.15;4.70;;;7.10;99.90;;;;;;5093172;28;20091;-72
2021/12/20 12:23:25;;;;;;;17.90;3.58;;;7.10;99.90;;;;;;5108398;28;20484;-72
2021/12/20 12:25:53;;;;;;;15.68;4.53;;;7.20;99.90;;;;;;5092099;28;20067;-72
2021/12/20 12:28:23;;;;;;;16.75;4.03;;;7.10;99.90;;;;;;5091699;28;20133;-72
2021/12/20 12:31:06;;;;;;;17.20;6.35;;;7.30;99.90;;;;;;5091107;28;20075;-72
2021/12/20 12:33:38;;;;;;;12.35;3.03;;;7.40;99.90;;;;;;5074981;28;20485;-72
2021/12/20 12:36:30;;;;;;;9.93;3.10;;;7.20;99.90;;;;;;5091817;28;20096;-72
2021/12/20 12:39:05;;;;;;;12.45;3.63;;;7.60;99.90;;;;;;5075135;28;20050;-72
2021/12/20 12:41:41;;;;;;;;;;;8.30;99.90;;;;;;5075381;28;20048;-72
2021/12/20 12:44:27;;;;;;;24.13;9.02;;;7.20;99.90;;;;;;5090860;28;19920;-72
2021/12/20 12:47:13;;;;;;;161.98;65.25;;;7.40;99.90;;;;;;5074978;28;20055;-73
2021/12/20 12:49:48;;;;;;;;;;;7.40;99.90;;;;;;5092519;28;20035;-72
2021/12/20 12:52:17;;;;;;;139.75;56.55;;;7.30;99.90;;;;;;5090933;28;19971;-72
2021/12/20 12:55:18;;;;;;;61.95;25.30;;;7.10;99.90;;;;;;5091693;28;20164;-72
2021/12/20 12:57:44;;;;;;;24.40;8.73;;;7.30;99.90;;;;;;5087948;28;20133;-72
2021/12/20 13:00:19;;;;;;;18.83;5.78;;;7.30;99.90;;;;;;5074673;28;20461;-72
2021/12/20 13:02:45;;;;;;;;;;;7.40;99.90;;;;;;5092721;28;20380;-72
2021/12/20 13:05:29;;;;;;;38.00;16.90;;;7.40;99.90;;;;;;5073993;28;19916;-72
2021/12/20 13:07:59;;;;;;;17.65;4.88;;;7.50;99.90;;;;;;5091221;28;20506;-73
2021/12/20 13:10:29;;;;;;;25.15;10.52;;;7.40;99.90;;;;;;5074497;28;20044;-72
2021/12/20 13:13:08;;;;;;;25.17;10.27;;;7.30;99.90;;;;;;5090663;28;20044;-73
2021/12/20 13:18:09;;;;;;;15.20;4.25;;;7.10;99.90;;;;;;5091568;28;20536;-73
2021/12/20 13:23:46;;;;;;;15.38;4.32;;;7.20;99.90;;;;;;5091285;28;20044;-73
2021/12/20 13:26:17;;;;;;;15.25;4.43;;;7.20;99.90;;;;;;5073710;28;20507;-73
2021/12/20 13:28:45;;;;;;;10.45;3.47;;;7.30;99.90;;;;;;5074381;28;20048;-73